createdAt,value
2023-03-27T00:00:08.000Z,1003.5
2023-03-27T00:01:24.000Z,1003.6
2023-03-27T00:02:40.000Z,1003.6
2023-03-27T00:03:56.000Z,1003.6
2023-03-27T00:05:13.000Z,1003.6
2023-03-27T00:06:29.000Z,1003.6
2023-03-27T00:07:45.000Z,1003.6
2023-03-27T00:09:01.000Z,1003.7
2023-03-27T00:10:16.000Z,1003.7
2023-03-27T00:11:33.000Z,1003.7
2023-03-27T00:12:49.000Z,1003.8
2023-03-27T00:14:05.000Z,1003.8
2023-03-27T00:15:21.000Z,1003.8
2023-03-27T00:16:37.000Z,1003.8
2023-03-27T00:17:54.000Z,1003.8
2023-03-27T00:19:10.000Z,1003.8
2023-03-27T00:20:26.000Z,1003.9
2023-03-27T00:21:42.000Z,1003.9
2023-03-27T00:22:58.000Z,1004
2023-03-27T00:24:15.000Z,1004
2023-03-27T00:25:31.000Z,1003.9
2023-03-27T00:26:46.000Z,1004
2023-03-27T00:28:02.000Z,1004
2023-03-27T00:29:18.000Z,1004
2023-03-27T00:30:35.000Z,1004.1
2023-03-27T00:31:51.000Z,1004.1
2023-03-27T00:33:07.000Z,1004.1
2023-03-27T00:34:23.000Z,1004.1
2023-03-27T00:35:39.000Z,1004.1
2023-03-27T00:36:56.005Z,1004.3
2023-03-27T00:38:12.000Z,1004.2
2023-03-27T00:39:28.000Z,1004.3
2023-03-27T00:40:44.000Z,1004.2
2023-03-27T00:42:00.000Z,1004.3
2023-03-27T00:43:16.000Z,1004.2
2023-03-27T00:44:32.000Z,1004.3
2023-03-27T00:45:48.000Z,1004.2
2023-03-27T00:47:04.000Z,1004.2
2023-03-27T00:48:20.000Z,1004.2
2023-03-27T00:49:37.000Z,1004.2
2023-03-27T00:50:53.000Z,1004.3
2023-03-27T00:52:09.000Z,1004.3
2023-03-27T00:53:25.000Z,1004.3
2023-03-27T00:54:41.000Z,1004.3
2023-03-27T00:55:57.000Z,1004.3
2023-03-27T00:57:14.000Z,1004.4
2023-03-27T00:58:30.000Z,1004.4
2023-03-27T00:59:45.000Z,1004.5
2023-03-27T01:01:01.000Z,1004.4
2023-03-27T01:02:17.000Z,1004.5
2023-03-27T01:03:34.000Z,1004.5
2023-03-27T01:04:50.000Z,1004.5
2023-03-27T01:06:06.000Z,1004.6
2023-03-27T01:07:22.000Z,1004.5
2023-03-27T01:08:38.876Z,1004.5
2023-03-27T01:09:55.000Z,1004.5
2023-03-27T01:11:11.000Z,1004.5
2023-03-27T01:12:27.000Z,1004.6
2023-03-27T01:13:43.000Z,1004.5
2023-03-27T01:14:59.862Z,1004.5
2023-03-27T01:16:15.000Z,1004.6
2023-03-27T01:17:31.000Z,1004.6
2023-03-27T01:18:47.000Z,1004.6
2023-03-27T01:20:03.000Z,1004.5
2023-03-27T01:21:19.000Z,1004.6
2023-03-27T01:22:36.000Z,1004.6
2023-03-27T01:23:52.000Z,1004.6
2023-03-27T01:25:08.000Z,1004.7
2023-03-27T01:26:24.000Z,1004.7
2023-03-27T01:27:40.000Z,1004.7
2023-03-27T01:28:57.000Z,1004.6
2023-03-27T01:30:13.000Z,1004.8
2023-03-27T01:31:29.000Z,1004.8
2023-03-27T01:32:44.000Z,1004.8
2023-03-27T01:34:00.000Z,1004.8
2023-03-27T01:35:17.000Z,1004.9
2023-03-27T01:36:33.000Z,1004.9
2023-03-27T01:37:49.000Z,1004.9
2023-03-27T01:39:05.000Z,1004.9
2023-03-27T01:40:21.000Z,1004.9
2023-03-27T01:41:38.000Z,1004.9
2023-03-27T01:42:54.000Z,1005
2023-03-27T01:44:10.000Z,1005
2023-03-27T01:45:26.000Z,1004.9
2023-03-27T01:46:42.000Z,1004.9
2023-03-27T01:47:58.000Z,1005
2023-03-27T01:49:14.000Z,1005
2023-03-27T01:50:30.000Z,1005
2023-03-27T01:51:46.000Z,1005
2023-03-27T01:53:02.000Z,1005
2023-03-27T01:54:18.000Z,1005
2023-03-27T01:55:35.000Z,1005
2023-03-27T01:56:51.000Z,1005
2023-03-27T01:58:07.000Z,1005
2023-03-27T01:59:23.000Z,1005
2023-03-27T02:00:39.000Z,1005
2023-03-27T02:01:56.000Z,1005.1
2023-03-27T02:03:12.000Z,1005.1
2023-03-27T02:04:28.000Z,1005.1
2023-03-27T02:05:43.000Z,1005.1
2023-03-27T02:06:59.000Z,1005.1
2023-03-27T02:08:16.000Z,1005.1
2023-03-27T02:09:32.000Z,1005.1
2023-03-27T02:10:48.000Z,1005.2
2023-03-27T02:12:04.000Z,1005.2
2023-03-27T02:13:20.000Z,1005.2
2023-03-27T02:14:37.000Z,1005.2
2023-03-27T02:15:53.000Z,1005.3
2023-03-27T02:17:09.000Z,1005.3
2023-03-27T02:18:25.000Z,1005.3
2023-03-27T02:19:41.000Z,1005.4
2023-03-27T02:20:58.000Z,1005.3
2023-03-27T02:22:13.000Z,1005.4
2023-03-27T02:23:29.000Z,1005.4
2023-03-27T02:24:45.579Z,1005.5
2023-03-27T02:26:01.000Z,1005.5
2023-03-27T02:27:18.000Z,1005.5
2023-03-27T02:28:34.000Z,1005.4
2023-03-27T02:29:49.000Z,1005.4
2023-03-27T02:31:05.000Z,1005.5
2023-03-27T02:32:21.000Z,1005.5
2023-03-27T02:33:38.000Z,1005.5
2023-03-27T02:34:54.000Z,1005.5
2023-03-27T02:36:10.000Z,1005.5
2023-03-27T02:37:26.000Z,1005.5
2023-03-27T02:38:42.000Z,1005.5
2023-03-27T02:39:58.000Z,1005.5
2023-03-27T02:41:15.000Z,1005.6
2023-03-27T02:42:31.000Z,1005.6
2023-03-27T02:43:47.000Z,1005.6
2023-03-27T02:45:03.000Z,1005.6
2023-03-27T02:46:18.000Z,1005.6
2023-03-27T02:47:35.000Z,1005.7
2023-03-27T02:48:51.000Z,1005.6
2023-03-27T02:50:07.000Z,1005.7
2023-03-27T02:51:23.000Z,1005.7
2023-03-27T02:52:39.000Z,1005.7
2023-03-27T02:53:56.000Z,1005.7
2023-03-27T02:55:12.000Z,1005.7
2023-03-27T02:56:28.000Z,1005.7
2023-03-27T02:57:44.000Z,1005.7
2023-03-27T02:59:00.000Z,1005.8
2023-03-27T03:00:17.000Z,1005.8
2023-03-27T03:01:33.234Z,1005.8
2023-03-27T03:02:48.446Z,1005.8
2023-03-27T03:04:04.000Z,1005.8
2023-03-27T03:05:20.000Z,1005.9
2023-03-27T03:06:37.000Z,1005.8
2023-03-27T03:07:53.000Z,1005.9
2023-03-27T03:09:09.000Z,1005.9
2023-03-27T03:10:25.000Z,1006.1
2023-03-27T03:11:41.000Z,1006.1
2023-03-27T03:12:58.000Z,1006
2023-03-27T03:14:14.000Z,1006.1
2023-03-27T03:15:30.000Z,1006.1
2023-03-27T03:16:46.000Z,1006.1
2023-03-27T03:18:02.000Z,1006.1
2023-03-27T03:19:18.000Z,1006.1
2023-03-27T03:20:34.000Z,1006.1
2023-03-27T03:21:50.000Z,1006.1
2023-03-27T03:23:06.000Z,1006.2
2023-03-27T03:24:22.000Z,1006.2
2023-03-27T03:25:39.000Z,1006.2
2023-03-27T03:26:55.000Z,1006.2
2023-03-27T03:28:11.000Z,1006.2
2023-03-27T03:29:27.000Z,1006.2
2023-03-27T03:30:43.000Z,1006.2
2023-03-27T03:31:59.000Z,1006.2
2023-03-27T03:33:16.000Z,1006.3
2023-03-27T03:34:32.000Z,1006.2
2023-03-27T03:35:47.000Z,1006.3
2023-03-27T03:37:03.000Z,1006.3
2023-03-27T03:38:19.000Z,1006.3
2023-03-27T03:39:36.000Z,1006.3
2023-03-27T03:40:52.000Z,1006.3
2023-03-27T03:42:08.000Z,1006.4
2023-03-27T03:43:24.000Z,1006.5
2023-03-27T03:44:40.000Z,1006.4
2023-03-27T03:45:57.000Z,1006.4
2023-03-27T03:47:13.000Z,1006.4
2023-03-27T03:48:29.000Z,1006.5
2023-03-27T03:49:45.000Z,1006.4
2023-03-27T03:51:01.000Z,1006.5
2023-03-27T03:52:17.000Z,1006.5
2023-03-27T03:53:33.252Z,1006.5
2023-03-27T03:54:49.000Z,1006.5
2023-03-27T03:56:05.000Z,1006.6
2023-03-27T03:57:21.000Z,1006.6
2023-03-27T03:58:38.000Z,1006.5
2023-03-27T03:59:54.000Z,1006.6
2023-03-27T04:01:10.000Z,1006.6
2023-03-27T04:02:26.000Z,1006.6
2023-03-27T04:03:42.000Z,1006.6
2023-03-27T04:04:59.000Z,1006.6
2023-03-27T04:06:15.000Z,1006.7
2023-03-27T04:07:31.000Z,1006.7
2023-03-27T04:08:46.000Z,1006.8
2023-03-27T04:10:02.781Z,1006.8
2023-03-27T04:11:19.000Z,1006.8
2023-03-27T04:12:35.000Z,1006.8
2023-03-27T04:13:51.000Z,1006.8
2023-03-27T04:15:07.000Z,1006.8
2023-03-27T04:16:23.000Z,1006.9
2023-03-27T04:17:40.000Z,1006.9
2023-03-27T04:18:56.000Z,1006.8
2023-03-27T04:20:12.000Z,1006.9
2023-03-27T04:21:28.000Z,1006.8
2023-03-27T04:22:44.000Z,1006.9
2023-03-27T04:24:00.000Z,1006.9
2023-03-27T04:25:16.000Z,1006.9
2023-03-27T04:26:32.000Z,1006.9
2023-03-27T04:27:48.516Z,1006.9
2023-03-27T04:29:04.000Z,1007
2023-03-27T04:30:20.000Z,1007
2023-03-27T04:31:37.094Z,1007
2023-03-27T04:32:53.000Z,1007
2023-03-27T04:34:09.000Z,1007
2023-03-27T04:35:25.000Z,1007.1
2023-03-27T04:36:41.000Z,1007.1
2023-03-27T04:37:58.000Z,1007
2023-03-27T04:39:14.000Z,1007.1
2023-03-27T04:40:30.000Z,1007.1
2023-03-27T04:41:45.000Z,1007.1
2023-03-27T04:43:01.000Z,1007.1
2023-03-27T04:44:18.000Z,1007.1
2023-03-27T04:45:34.000Z,1007.1
2023-03-27T04:46:50.000Z,1007.1
2023-03-27T04:48:06.000Z,1007.1
2023-03-27T04:49:22.000Z,1007.1
2023-03-27T04:50:39.000Z,1007.1
2023-03-27T04:51:55.000Z,1007.1
2023-03-27T04:53:11.000Z,1007.2
2023-03-27T04:54:27.000Z,1007.2
2023-03-27T04:55:43.000Z,1007.2
2023-03-27T04:57:00.000Z,1007.2
2023-03-27T04:58:15.000Z,1007.3
2023-03-27T04:59:31.000Z,1007.3
2023-03-27T05:00:47.000Z,1007.3
2023-03-27T05:02:03.000Z,1007.3
2023-03-27T05:03:20.000Z,1007.4
2023-03-27T05:04:36.168Z,1007.4
2023-03-27T05:05:52.000Z,1007.4
2023-03-27T05:07:08.000Z,1007.4
2023-03-27T05:08:24.000Z,1007.5
2023-03-27T05:09:40.940Z,1007.5
2023-03-27T05:10:57.000Z,1007.5
2023-03-27T05:12:13.000Z,1007.5
2023-03-27T05:13:29.000Z,1007.5
2023-03-27T05:14:44.000Z,1007.5
2023-03-27T05:16:00.913Z,1007.5
2023-03-27T05:17:17.000Z,1007.6
2023-03-27T05:18:33.000Z,1007.6
2023-03-27T05:19:49.000Z,1007.6
2023-03-27T05:21:05.000Z,1007.6
2023-03-27T05:22:21.884Z,1007.7
2023-03-27T05:23:38.000Z,1007.6
2023-03-27T05:24:54.000Z,1007.7
2023-03-27T05:26:10.000Z,1007.7
2023-03-27T05:27:26.000Z,1007.8
2023-03-27T05:28:42.000Z,1007.7
2023-03-27T05:29:59.000Z,1007.7
2023-03-27T05:31:14.000Z,1007.7
2023-03-27T05:32:30.000Z,1007.8
2023-03-27T05:33:46.000Z,1007.8
2023-03-27T05:35:02.000Z,1007.8
2023-03-27T05:36:19.000Z,1007.9
2023-03-27T05:37:35.000Z,1007.9
2023-03-27T05:38:51.000Z,1007.9
2023-03-27T05:40:07.000Z,1007.9
2023-03-27T05:41:23.000Z,1008
2023-03-27T05:42:40.000Z,1008
2023-03-27T05:43:56.000Z,1008
2023-03-27T05:45:12.000Z,1008.1
2023-03-27T05:46:28.000Z,1008.1
2023-03-27T05:47:43.806Z,1008.1
2023-03-27T05:49:00.000Z,1008.1
2023-03-27T05:50:16.000Z,1008.1
2023-03-27T05:51:32.000Z,1008.1
2023-03-27T05:52:48.000Z,1008.1
2023-03-27T05:54:04.000Z,1008.1
2023-03-27T05:55:21.000Z,1008.1
2023-03-27T05:56:37.000Z,1008.2
2023-03-27T05:57:53.355Z,1008
2023-03-27T05:59:09.000Z,1008.1
2023-03-27T06:00:25.738Z,1008.1
2023-03-27T06:01:42.000Z,1008.2
2023-03-27T06:02:58.000Z,1008.1
2023-03-27T06:04:13.000Z,1008.1
2023-03-27T06:05:29.000Z,1008.2
2023-03-27T06:06:45.000Z,1008.1
2023-03-27T06:08:02.000Z,1008.2
2023-03-27T06:09:18.000Z,1008.2
2023-03-27T06:10:34.000Z,1008.1
2023-03-27T06:11:50.000Z,1008.2
2023-03-27T06:13:06.000Z,1008.2
2023-03-27T06:14:22.000Z,1008.2
2023-03-27T06:15:39.000Z,1008.2
2023-03-27T06:16:55.000Z,1008.2
2023-03-27T06:18:11.000Z,1008.2
2023-03-27T06:19:27.000Z,1008.3
2023-03-27T06:20:42.000Z,1008.3
2023-03-27T06:21:59.000Z,1008.3
2023-03-27T06:23:15.000Z,1008.4
2023-03-27T06:24:31.000Z,1008.4
2023-03-27T06:25:47.000Z,1008.3
2023-03-27T06:27:03.000Z,1008.6
2023-03-27T06:28:20.000Z,1009
2023-03-27T06:29:36.000Z,1009.2
2023-03-27T06:30:52.000Z,1009.2
2023-03-27T06:32:08.000Z,1009
2023-03-27T06:33:24.000Z,1009.1
2023-03-27T06:34:41.000Z,1008.9
2023-03-27T06:35:57.000Z,1009.2
2023-03-27T06:37:12.000Z,1009.2
2023-03-27T06:38:28.000Z,1009.2
2023-03-27T06:39:44.000Z,1009.3
2023-03-27T06:41:01.000Z,1009.3
2023-03-27T06:42:17.000Z,1009.2
2023-03-27T06:43:33.000Z,1009.2
2023-03-27T06:44:48.000Z,1009.2
2023-03-27T06:46:04.000Z,1009.2
2023-03-27T06:47:21.000Z,1009.2
2023-03-27T06:48:37.000Z,1009.2
2023-03-27T06:49:53.000Z,1009.2
2023-03-27T06:51:09.000Z,1009.1
2023-03-27T06:52:25.000Z,1009.1
2023-03-27T06:53:42.000Z,1009.1
2023-03-27T06:54:58.000Z,1009.2
2023-03-27T06:56:14.000Z,1009.2
2023-03-27T06:57:30.000Z,1009.2
2023-03-27T06:58:46.000Z,1009.2
2023-03-27T07:00:03.000Z,1009.2
2023-03-27T07:01:18.000Z,1009.3
2023-03-27T07:02:34.000Z,1009.2
2023-03-27T07:03:50.603Z,1009.3
2023-03-27T07:05:06.000Z,1009.2
2023-03-27T07:06:22.997Z,1009.3
2023-03-27T07:07:39.000Z,1009.2
2023-03-27T07:08:55.000Z,1009.3
2023-03-27T07:10:11.000Z,1009.2
2023-03-27T07:11:27.000Z,1009.3
2023-03-27T07:12:44.000Z,1008.7
2023-03-27T07:14:00.000Z,1009.1
2023-03-27T07:15:16.000Z,1009.4
2023-03-27T07:16:32.570Z,1009.4
2023-03-27T07:17:47.000Z,1008.9
2023-03-27T07:19:03.969Z,1009.5
2023-03-27T07:20:20.000Z,1009.5
2023-03-27T07:21:36.000Z,1009.6
2023-03-27T07:22:52.564Z,1009.5
2023-03-27T07:24:08.000Z,1009.6
2023-03-27T07:25:25.000Z,1009.6
2023-03-27T07:26:41.000Z,1009.5
2023-03-27T07:27:57.000Z,1009.7
2023-03-27T07:29:13.000Z,1009.7
2023-03-27T07:30:29.000Z,1009.7
2023-03-27T07:31:46.000Z,1009.6
2023-03-27T07:33:02.000Z,1009.7
2023-03-27T07:34:17.000Z,1009.6
2023-03-27T07:35:33.546Z,1009.7
2023-03-27T07:36:49.000Z,1009.8
2023-03-27T07:38:06.000Z,1009.8
2023-03-27T07:39:22.000Z,1009.8
2023-03-27T07:40:38.000Z,1009.8
2023-03-27T07:41:54.000Z,1009.7
2023-03-27T07:43:10.000Z,1009.7
2023-03-27T07:44:26.000Z,1009.8
2023-03-27T07:45:43.000Z,1009.9
2023-03-27T07:46:59.000Z,1009.8
2023-03-27T07:48:15.000Z,1009.9
2023-03-27T07:49:31.000Z,1009.8
2023-03-27T07:50:47.000Z,1009.8
2023-03-27T07:52:03.000Z,1009.9
2023-03-27T07:53:19.000Z,1009.9
2023-03-27T07:54:35.503Z,1009.8
2023-03-27T07:55:51.000Z,1009.3
2023-03-27T07:57:07.000Z,1009.8
2023-03-27T07:58:24.000Z,1009.7
2023-03-27T07:59:40.000Z,1009.8
2023-03-27T08:00:56.000Z,1008.9
2023-03-27T08:02:12.000Z,1009.6
2023-03-27T08:03:28.000Z,1009.7
2023-03-27T08:04:45.000Z,1008.9
2023-03-27T08:06:01.000Z,1008.9
2023-03-27T08:07:16.503Z,1009.3
2023-03-27T08:08:32.000Z,1009.6
2023-03-27T08:09:48.000Z,1009.6
2023-03-27T08:11:05.000Z,1009.5
2023-03-27T08:12:21.000Z,1009.5
2023-03-27T08:13:37.000Z,1009.2
2023-03-27T08:14:53.000Z,1009.4
2023-03-27T08:16:09.000Z,1009.3
2023-03-27T08:17:26.000Z,1009.2
2023-03-27T08:18:42.000Z,1009.2
2023-03-27T08:19:58.000Z,1009.2
2023-03-27T08:21:14.000Z,1009.2
2023-03-27T08:22:30.000Z,1009.2
2023-03-27T08:23:46.000Z,1009
2023-03-27T08:25:02.000Z,1009
2023-03-27T08:26:18.000Z,1009.2
2023-03-27T08:27:34.000Z,1009
2023-03-27T08:28:50.000Z,1009.1
2023-03-27T08:30:07.000Z,1009.1
2023-03-27T08:31:23.000Z,1009.1
2023-03-27T08:32:39.000Z,1009.3
2023-03-27T08:33:55.000Z,1009.1
2023-03-27T08:35:11.000Z,1009.2
2023-03-27T08:36:28.000Z,1009.1
2023-03-27T08:37:44.000Z,1009.1
2023-03-27T08:39:00.000Z,1009.1
2023-03-27T08:40:15.000Z,1009.1
2023-03-27T08:41:31.000Z,1009.1
2023-03-27T08:42:48.000Z,1009.2
2023-03-27T08:44:04.000Z,1009.1
2023-03-27T08:45:20.410Z,1009.1
2023-03-27T08:46:36.620Z,1009.2
2023-03-27T08:47:52.000Z,1009.2
2023-03-27T08:49:09.000Z,1009.2
2023-03-27T08:50:25.000Z,1009.2
2023-03-27T08:51:41.000Z,1009.3
2023-03-27T08:52:57.000Z,1009.2
2023-03-27T08:54:13.000Z,1009.2
2023-03-27T08:55:30.000Z,1009.4
2023-03-27T08:56:45.000Z,1009.3
2023-03-27T08:58:01.000Z,1009.4
2023-03-27T08:59:17.000Z,1009.5
2023-03-27T09:00:33.000Z,1009.5
2023-03-27T09:01:50.000Z,1009.5
2023-03-27T09:03:06.000Z,1009.6
2023-03-27T09:04:22.000Z,1009.5
2023-03-27T09:05:38.000Z,1009.4
2023-03-27T09:06:54.000Z,1009.4
2023-03-27T09:08:11.000Z,1009.5
2023-03-27T09:09:27.000Z,1009.5
2023-03-27T09:10:43.000Z,1009.4
2023-03-27T09:11:59.000Z,1009.4
2023-03-27T09:13:14.000Z,1009.5
2023-03-27T09:14:31.000Z,1009.5
2023-03-27T09:15:47.000Z,1009.5
2023-03-27T09:17:03.334Z,1009.6
2023-03-27T09:18:19.000Z,1009.6
2023-03-27T09:19:35.000Z,1009.6
2023-03-27T09:20:52.000Z,1009.6
2023-03-27T09:22:08.000Z,1009.6
2023-03-27T09:23:24.000Z,1009.5
2023-03-27T09:24:40.498Z,1009.5
2023-03-27T09:25:56.000Z,1009.5
2023-03-27T09:27:12.000Z,1009.5
2023-03-27T09:28:29.000Z,1009.5
2023-03-27T09:29:44.000Z,1009.6
2023-03-27T09:31:00.000Z,1009.6
2023-03-27T09:32:16.000Z,1009.6
2023-03-27T09:33:32.000Z,1009.7
2023-03-27T09:34:49.000Z,1009.7
2023-03-27T09:36:05.000Z,1009.6
2023-03-27T09:37:21.000Z,1009.7
2023-03-27T09:38:37.000Z,1009.7
2023-03-27T09:39:53.000Z,1009.7
2023-03-27T09:41:10.000Z,1009.6
2023-03-27T09:42:26.000Z,1009.5
2023-03-27T09:43:42.000Z,1009.6
2023-03-27T09:44:58.000Z,1009.6
2023-03-27T09:46:13.000Z,1009.7
2023-03-27T09:47:30.000Z,1009.6
2023-03-27T09:48:46.000Z,1009.7
2023-03-27T09:50:02.000Z,1009.7
2023-03-27T09:51:18.633Z,1009.7
2023-03-27T09:52:34.000Z,1009.7
2023-03-27T09:53:51.000Z,1009.6
2023-03-27T09:55:07.000Z,1009.7
2023-03-27T09:56:23.000Z,1009.7
2023-03-27T09:57:39.000Z,1009.7
2023-03-27T09:58:55.000Z,1009.8
2023-03-27T10:00:12.000Z,1009.8
2023-03-27T10:01:28.000Z,1009.9
2023-03-27T10:02:43.000Z,1009.9
2023-03-27T10:03:59.000Z,1009.8
2023-03-27T10:05:15.000Z,1009.9
2023-03-27T10:06:32.000Z,1009.9
2023-03-27T10:07:48.000Z,1009.9
2023-03-27T10:09:04.000Z,1009.8
2023-03-27T10:10:20.000Z,1009.8
2023-03-27T10:11:36.000Z,1009.8
2023-03-27T10:12:53.000Z,1009.8
2023-03-27T10:14:09.163Z,1009.9
2023-03-27T10:15:25.000Z,1009.9
2023-03-27T10:16:41.000Z,1009.9
2023-03-27T10:17:57.000Z,1009.9
2023-03-27T10:19:13.000Z,1010
2023-03-27T10:20:29.000Z,1009.9
2023-03-27T10:21:45.000Z,1009.9
2023-03-27T10:23:01.550Z,1010
2023-03-27T10:24:17.000Z,1009.9
2023-03-27T10:25:34.000Z,1009.9
2023-03-27T10:26:50.000Z,1009.9
2023-03-27T10:28:06.000Z,1009.9
2023-03-27T10:29:22.000Z,1009.9
2023-03-27T10:30:38.000Z,1009.9
2023-03-27T10:31:55.000Z,1009.9
2023-03-27T10:33:11.000Z,1009.9
2023-03-27T10:34:27.000Z,1009.9
2023-03-27T10:35:42.533Z,1009.9
2023-03-27T10:36:58.000Z,1009.9
2023-03-27T10:38:15.000Z,1009.8
2023-03-27T10:39:31.000Z,1009.9
2023-03-27T10:40:47.000Z,1009.9
2023-03-27T10:42:03.000Z,1009.9
2023-03-27T10:43:19.000Z,1010
2023-03-27T10:44:35.000Z,1009.9
2023-03-27T10:45:52.000Z,1010
2023-03-27T10:47:08.000Z,1009.9
2023-03-27T10:48:24.000Z,1009.9
2023-03-27T10:49:40.000Z,1010
2023-03-27T10:50:56.000Z,1009.9
2023-03-27T10:52:12.076Z,1010
2023-03-27T10:53:28.000Z,1009.9
2023-03-27T10:54:44.000Z,1010
2023-03-27T10:56:00.000Z,1010
2023-03-27T10:57:16.000Z,1010
2023-03-27T10:58:33.000Z,1010.1
2023-03-27T10:59:48.000Z,1010.2
2023-03-27T11:01:04.000Z,1010.2
2023-03-27T11:02:20.000Z,1010.4
2023-03-27T11:03:36.000Z,1010.3
2023-03-27T11:04:53.000Z,1010.3
2023-03-27T11:06:09.000Z,1010.2
2023-03-27T11:07:25.000Z,1010.3
2023-03-27T11:08:41.000Z,1010.3
2023-03-27T11:09:57.000Z,1010.3
2023-03-27T11:11:14.000Z,1010.3
2023-03-27T11:12:30.000Z,1010.3
2023-03-27T11:13:46.000Z,1010.3
2023-03-27T11:15:02.000Z,1010.3
2023-03-27T11:16:17.000Z,1010.4
2023-03-27T11:17:34.000Z,1010.4
2023-03-27T11:18:50.000Z,1010.4
2023-03-27T11:20:06.000Z,1010.4
2023-03-27T11:21:22.000Z,1010.3
2023-03-27T11:22:38.000Z,1010.4
2023-03-27T11:23:55.000Z,1010.4
2023-03-27T11:25:11.000Z,1010.3
2023-03-27T11:26:27.000Z,1010.4
2023-03-27T11:27:43.000Z,1010.4
2023-03-27T11:28:59.000Z,1010.4
2023-03-27T11:30:16.000Z,1010.3
2023-03-27T11:31:32.000Z,1010.3
2023-03-27T11:32:47.000Z,1010.4
2023-03-27T11:34:03.000Z,1010.4
2023-03-27T11:35:19.000Z,1010.3
2023-03-27T11:36:36.000Z,1010.3
2023-03-27T11:37:52.000Z,1010.3
2023-03-27T11:39:08.000Z,1010.3
2023-03-27T11:40:24.000Z,1010.3
2023-03-27T11:41:40.000Z,1010.3
2023-03-27T11:42:57.010Z,1010.3
2023-03-27T11:44:13.000Z,1010.4
2023-03-27T11:45:29.000Z,1010.6
2023-03-27T11:46:45.000Z,1010.7
2023-03-27T11:48:01.000Z,1010.9
2023-03-27T11:49:17.000Z,1010.9
2023-03-27T11:50:33.000Z,1011
2023-03-27T11:51:49.000Z,1011
2023-03-27T11:53:05.000Z,1011.1
2023-03-27T11:54:21.000Z,1011.2
2023-03-27T11:55:38.000Z,1011.2
2023-03-27T11:56:54.000Z,1011.2
2023-03-27T11:58:10.000Z,1011.2
2023-03-27T11:59:26.000Z,1011.2
2023-03-27T12:00:42.000Z,1011.2
2023-03-27T12:01:58.000Z,1011.2
2023-03-27T12:03:15.000Z,1011.1
2023-03-27T12:04:31.350Z,1011
2023-03-27T12:05:46.000Z,1011.1
2023-03-27T12:07:02.000Z,1011.1
2023-03-27T12:08:18.000Z,1011
2023-03-27T12:09:35.000Z,1011
2023-03-27T12:10:51.000Z,1011.1
2023-03-27T12:12:07.000Z,1011
2023-03-27T12:13:23.000Z,1011
2023-03-27T12:14:39.000Z,1011
2023-03-27T12:15:56.000Z,1011
2023-03-27T12:17:12.000Z,1011
2023-03-27T12:18:28.000Z,1011.1
2023-03-27T12:19:44.000Z,1011
2023-03-27T12:21:00.913Z,1011
2023-03-27T12:22:16.000Z,1011
2023-03-27T12:23:32.000Z,1011
2023-03-27T12:24:48.000Z,1011
2023-03-27T12:26:04.000Z,1011
2023-03-27T12:27:20.000Z,1011.1
2023-03-27T12:28:37.000Z,1011
2023-03-27T12:29:53.000Z,1011
2023-03-27T12:31:09.000Z,1011
2023-03-27T12:32:25.000Z,1010.9
2023-03-27T12:33:41.000Z,1010.9
2023-03-27T12:34:58.000Z,1010.9
2023-03-27T12:36:14.000Z,1011
2023-03-27T12:37:30.000Z,1011
2023-03-27T12:38:45.000Z,1011
2023-03-27T12:40:01.000Z,1011
2023-03-27T12:41:18.000Z,1011
2023-03-27T12:42:34.000Z,1011
2023-03-27T12:43:50.000Z,1011
2023-03-27T12:45:06.000Z,1011
2023-03-27T12:46:22.000Z,1011
2023-03-27T12:47:39.000Z,1011.1
2023-03-27T12:48:55.000Z,1011
2023-03-27T12:50:11.000Z,1011
2023-03-27T12:51:27.000Z,1011
2023-03-27T12:52:43.000Z,1011
2023-03-27T12:54:00.033Z,1011
2023-03-27T12:55:15.000Z,1011
2023-03-27T12:56:31.000Z,1011
2023-03-27T12:57:47.000Z,1011.1
2023-03-27T12:59:03.846Z,1011
2023-03-27T13:00:20.000Z,1011
2023-03-27T13:01:36.000Z,1011.1
2023-03-27T13:02:52.000Z,1011.1
2023-03-27T13:04:08.000Z,1011.1
2023-03-27T13:05:24.000Z,1011.1
2023-03-27T13:06:41.000Z,1011.1
2023-03-27T13:07:57.000Z,1011.2
2023-03-27T13:09:13.000Z,1011.1
2023-03-27T13:10:29.000Z,1011.2
2023-03-27T13:11:44.800Z,1011.3
2023-03-27T13:13:01.000Z,1011.4
2023-03-27T13:14:17.000Z,1011.4
2023-03-27T13:15:33.000Z,1011.6
2023-03-27T13:16:49.000Z,1011.8
2023-03-27T13:18:05.000Z,1011.5
2023-03-27T13:19:22.000Z,1011.5
2023-03-27T13:20:38.000Z,1011.5
2023-03-27T13:21:54.000Z,1011.4
2023-03-27T13:23:10.000Z,1011.5
2023-03-27T13:24:26.000Z,1011.5
2023-03-27T13:25:42.000Z,1011.4
2023-03-27T13:26:59.000Z,1011.4
2023-03-27T13:28:14.000Z,1011.4
2023-03-27T13:29:30.000Z,1011.4
2023-03-27T13:30:46.000Z,1011.4
2023-03-27T13:32:02.000Z,1011.4
2023-03-27T13:33:19.000Z,1011.4
2023-03-27T13:34:35.000Z,1011.3
2023-03-27T13:35:51.000Z,1011.4
2023-03-27T13:37:07.000Z,1011.4
2023-03-27T13:38:23.000Z,1011.4
2023-03-27T13:39:40.000Z,1011.4
2023-03-27T13:40:56.000Z,1011.4
2023-03-27T13:42:12.000Z,1011.5
2023-03-27T13:43:28.000Z,1011.3
2023-03-27T13:44:43.000Z,1011.3
2023-03-27T13:46:00.000Z,1011.3
2023-03-27T13:47:16.000Z,1011.4
2023-03-27T13:48:32.000Z,1011.3
2023-03-27T13:49:48.728Z,1011.3
2023-03-27T13:51:04.000Z,1011.3
2023-03-27T13:52:21.000Z,1011.3
2023-03-27T13:53:37.000Z,1011.3
2023-03-27T13:54:53.000Z,1011.3
2023-03-27T13:56:09.714Z,1011.3
2023-03-27T13:57:25.000Z,1011.3
2023-03-27T13:58:42.000Z,1011.3
2023-03-27T13:59:58.000Z,1011.2
2023-03-27T14:01:13.000Z,1011.2
2023-03-27T14:02:29.000Z,1011.3
2023-03-27T14:03:45.000Z,1011.3
2023-03-27T14:05:02.000Z,1011.3
2023-03-27T14:06:18.000Z,1011.3
2023-03-27T14:07:34.000Z,1011.2
2023-03-27T14:08:50.000Z,1011.3
2023-03-27T14:10:06.000Z,1011.3
2023-03-27T14:12:39.000Z,1011.3
2023-03-27T14:13:55.000Z,1011.3
2023-03-27T14:15:11.000Z,1011.3
2023-03-27T14:16:27.000Z,1011.3
2023-03-27T14:17:43.000Z,1011.3
2023-03-27T14:18:59.000Z,1011.4
2023-03-27T14:20:15.000Z,1011.5
2023-03-27T14:21:31.000Z,1011.5
2023-03-27T14:22:47.000Z,1011.5
2023-03-27T14:24:04.000Z,1011.7
2023-03-27T14:25:20.000Z,1011.6
2023-03-27T14:26:36.000Z,1011.6
2023-03-27T14:27:52.000Z,1011.6
2023-03-27T14:29:08.000Z,1011.6
2023-03-27T14:30:25.000Z,1011.6
2023-03-27T14:31:41.000Z,1011.5
2023-03-27T14:32:57.000Z,1011.5
2023-03-27T14:34:12.000Z,1011.5
2023-03-27T14:35:28.000Z,1011.5
2023-03-27T14:36:45.000Z,1011.4
2023-03-27T14:38:01.000Z,1011.4
2023-03-27T14:39:17.000Z,1011.5
2023-03-27T14:40:33.000Z,1011.4
2023-03-27T14:41:49.000Z,1011.5
2023-03-27T14:43:06.000Z,1011.5
2023-03-27T14:44:22.000Z,1011.5
2023-03-27T14:45:38.000Z,1011.5
2023-03-27T14:46:54.612Z,1011.5
2023-03-27T14:48:10.000Z,1011.5
2023-03-27T14:49:27.000Z,1011.6
2023-03-27T14:50:42.000Z,1011.6
2023-03-27T14:51:58.000Z,1011.7
2023-03-27T14:53:14.000Z,1011.7
2023-03-27T14:54:30.000Z,1011.8
2023-03-27T14:55:47.000Z,1011.8
2023-03-27T14:57:03.000Z,1011.9
2023-03-27T14:58:19.000Z,1011.9
2023-03-27T14:59:35.000Z,1011.9
2023-03-27T15:00:51.000Z,1011.9
2023-03-27T15:02:07.000Z,1011.8
2023-03-27T15:03:24.000Z,1011.9
2023-03-27T15:04:40.000Z,1011.8
2023-03-27T15:05:56.000Z,1011.9
2023-03-27T15:07:11.000Z,1011.9
2023-03-27T15:08:27.000Z,1011.8
2023-03-27T15:09:44.000Z,1011.8
2023-03-27T15:11:00.000Z,1011.9
2023-03-27T15:12:16.000Z,1011.8
2023-03-27T15:13:32.000Z,1011.9
2023-03-27T15:14:47.000Z,1011.8
2023-03-27T15:16:04.000Z,1011.8
2023-03-27T15:17:20.000Z,1011.8
2023-03-27T15:18:36.000Z,1011.8
2023-03-27T15:19:52.000Z,1011.8
2023-03-27T15:21:08.000Z,1011.8
2023-03-27T15:22:25.000Z,1011.8
2023-03-27T15:23:41.000Z,1011.8
2023-03-27T15:24:57.000Z,1011.8
2023-03-27T15:26:13.000Z,1011.8
2023-03-27T15:27:29.000Z,1011.7
2023-03-27T15:28:46.000Z,1011.7
2023-03-27T15:30:02.000Z,1011.7
2023-03-27T15:31:17.000Z,1011.8
2023-03-27T15:32:33.000Z,1011.8
2023-03-27T15:33:49.000Z,1011.8
2023-03-27T15:35:06.000Z,1011.9
2023-03-27T15:36:22.000Z,1011.8
2023-03-27T15:37:38.000Z,1011.8
2023-03-27T15:38:54.655Z,1011.8
2023-03-27T15:40:10.000Z,1011.8
2023-03-27T15:41:27.000Z,1011.7
2023-03-27T15:42:43.000Z,1011.8
2023-03-27T15:43:59.421Z,1011.8
2023-03-27T15:45:15.000Z,1011.9
2023-03-27T15:46:31.000Z,1011.8
2023-03-27T15:47:47.000Z,1011.8
2023-03-27T15:49:03.000Z,1011.8
2023-03-27T15:50:19.000Z,1011.7
2023-03-27T15:51:35.000Z,1011.8
2023-03-27T15:52:51.000Z,1011.8
2023-03-27T15:54:08.000Z,1011.9
2023-03-27T15:55:24.000Z,1012
2023-03-27T15:56:40.389Z,1012